Three Hills, Canada
Current Conditions -  °F | °C
As of 4:00 AM on Friday 28 Nov 2014 (Local Time) from CYQF Reporting Station
Light Snow Light Snow  
Wind Chill: -21°   Ceiling: 1700
Heat Index: -2°   Visibility: 2mi
Dew Point: -6°   Wind: 13mph
Humidity: 85%   Direction: 360°N
Pressure: 29.71"   Gusts: NA
Location:  51.7°N, 113.26°W
Report Text: CYQF 281100Z 36011KT 2SM -SN DRSN OVC017 M19/M21 A2971 RMK SC8 SLP134
Loading
Personal Weather Stations






























Interactive Weather Map New forecast layout! Learn more

10-Day Weather Forecast

Advertisements
Track Severe Weather on mobile